sensor_id;sensor_type;location;lat;lon;timestamp;P1;durP1;ratioP1;P2;durP2;ratioP2
6205;SDS011;3136;48.788;9.772;2023-07-28T00:02:00;3.10;;;2.87;;
6205;SDS011;3136;48.788;9.772;2023-07-28T00:04:25;4.03;;;3.00;;
6205;SDS011;3136;48.788;9.772;2023-07-28T00:06:51;2.93;;;2.73;;
6205;SDS011;3136;48.788;9.772;2023-07-28T00:09:16;4.07;;;3.37;;
6205;SDS011;3136;48.788;9.772;2023-07-28T00:11:42;4.40;;;3.77;;
6205;SDS011;3136;48.788;9.772;2023-07-28T00:14:07;4.77;;;2.80;;
6205;SDS011;3136;48.788;9.772;2023-07-28T00:16:33;6.63;;;3.20;;
6205;SDS011;3136;48.788;9.772;2023-07-28T00:18:58;6.10;;;2.67;;
6205;SDS011;3136;48.788;9.772;2023-07-28T00:21:24;3.50;;;3.20;;
6205;SDS011;3136;48.788;9.772;2023-07-28T00:23:51;3.20;;;2.73;;
6205;SDS011;3136;48.788;9.772;2023-07-28T00:26:16;3.80;;;3.50;;
6205;SDS011;3136;48.788;9.772;2023-07-28T00:28:42;4.23;;;3.20;;
6205;SDS011;3136;48.788;9.772;2023-07-28T00:31:07;4.60;;;3.20;;
6205;SDS011;3136;48.788;9.772;2023-07-28T00:33:33;4.50;;;3.27;;
6205;SDS011;3136;48.788;9.772;2023-07-28T00:35:58;6.00;;;3.30;;
6205;SDS011;3136;48.788;9.772;2023-07-28T00:38:24;8.47;;;3.10;;
6205;SDS011;3136;48.788;9.772;2023-07-28T00:40:50;3.67;;;2.77;;
6205;SDS011;3136;48.788;9.772;2023-07-28T00:43:15;5.03;;;3.67;;
6205;SDS011;3136;48.788;9.772;2023-07-28T00:45:41;3.30;;;3.00;;
6205;SDS011;3136;48.788;9.772;2023-07-28T00:48:09;4.00;;;3.30;;
6205;SDS011;3136;48.788;9.772;2023-07-28T00:50:37;3.70;;;3.40;;
6205;SDS011;3136;48.788;9.772;2023-07-28T00:53:04;3.17;;;2.93;;
6205;SDS011;3136;48.788;9.772;2023-07-28T00:55:30;4.37;;;3.23;;
6205;SDS011;3136;48.788;9.772;2023-07-28T00:57:56;5.30;;;3.27;;
6205;SDS011;3136;48.788;9.772;2023-07-28T01:00:22;5.33;;;3.10;;
6205;SDS011;3136;48.788;9.772;2023-07-28T01:02:47;4.37;;;3.27;;
6205;SDS011;3136;48.788;9.772;2023-07-28T01:05:13;4.40;;;3.00;;
6205;SDS011;3136;48.788;9.772;2023-07-28T01:10:30;3.90;;;2.93;;
6205;SDS011;3136;48.788;9.772;2023-07-28T01:12:57;4.00;;;3.10;;
6205;SDS011;3136;48.788;9.772;2023-07-28T01:15:23;6.23;;;3.23;;
6205;SDS011;3136;48.788;9.772;2023-07-28T01:17:49;4.90;;;3.33;;
6205;SDS011;3136;48.788;9.772;2023-07-28T01:20:15;4.60;;;3.13;;
6205;SDS011;3136;48.788;9.772;2023-07-28T01:27:44;3.60;;;3.13;;
6205;SDS011;3136;48.788;9.772;2023-07-28T01:30:10;5.50;;;3.27;;
6205;SDS011;3136;48.788;9.772;2023-07-28T01:32:36;3.77;;;3.47;;
6205;SDS011;3136;48.788;9.772;2023-07-28T01:35:02;4.73;;;3.47;;
6205;SDS011;3136;48.788;9.772;2023-07-28T01:37:28;4.20;;;3.10;;
6205;SDS011;3136;48.788;9.772;2023-07-28T01:39:54;7.90;;;3.10;;
6205;SDS011;3136;48.788;9.772;2023-07-28T01:42:20;4.17;;;3.43;;
6205;SDS011;3136;48.788;9.772;2023-07-28T01:44:46;6.90;;;3.30;;
6205;SDS011;3136;48.788;9.772;2023-07-28T01:47:11;3.43;;;3.13;;
6205;SDS011;3136;48.788;9.772;2023-07-28T01:49:37;3.50;;;3.20;;
6205;SDS011;3136;48.788;9.772;2023-07-28T01:52:02;3.83;;;2.83;;
6205;SDS011;3136;48.788;9.772;2023-07-28T01:54:28;3.93;;;2.90;;
6205;SDS011;3136;48.788;9.772;2023-07-28T01:56:54;6.57;;;3.40;;
6205;SDS011;3136;48.788;9.772;2023-07-28T01:59:19;4.10;;;3.27;;
6205;SDS011;3136;48.788;9.772;2023-07-28T02:01:46;5.03;;;3.30;;
6205;SDS011;3136;48.788;9.772;2023-07-28T02:04:12;4.70;;;3.40;;
6205;SDS011;3136;48.788;9.772;2023-07-28T02:06:37;3.47;;;3.17;;
6205;SDS011;3136;48.788;9.772;2023-07-28T02:09:03;3.33;;;3.03;;
6205;SDS011;3136;48.788;9.772;2023-07-28T02:11:29;5.70;;;3.43;;
6205;SDS011;3136;48.788;9.772;2023-07-28T02:13:54;3.60;;;3.30;;
6205;SDS011;3136;48.788;9.772;2023-07-28T02:16:20;3.90;;;3.27;;
6205;SDS011;3136;48.788;9.772;2023-07-28T02:18:45;5.50;;;3.20;;
6205;SDS011;3136;48.788;9.772;2023-07-28T02:21:11;4.17;;;3.10;;
6205;SDS011;3136;48.788;9.772;2023-07-28T02:23:36;4.53;;;3.10;;
6205;SDS011;3136;48.788;9.772;2023-07-28T02:26:02;4.93;;;3.33;;
6205;SDS011;3136;48.788;9.772;2023-07-28T02:28:27;5.23;;;3.50;;
6205;SDS011;3136;48.788;9.772;2023-07-28T02:30:53;4.57;;;3.40;;
6205;SDS011;3136;48.788;9.772;2023-07-28T02:33:18;11.00;;;3.63;;
6205;SDS011;3136;48.788;9.772;2023-07-28T02:35:44;4.27;;;3.40;;
6205;SDS011;3136;48.788;9.772;2023-07-28T02:38:10;4.53;;;3.50;;
6205;SDS011;3136;48.788;9.772;2023-07-28T02:40:35;3.50;;;3.20;;
6205;SDS011;3136;48.788;9.772;2023-07-28T02:43:01;4.33;;;3.30;;
6205;SDS011;3136;48.788;9.772;2023-07-28T02:45:26;5.40;;;3.30;;
6205;SDS011;3136;48.788;9.772;2023-07-28T02:47:52;4.50;;;3.30;;
6205;SDS011;3136;48.788;9.772;2023-07-28T02:50:17;4.93;;;3.73;;
6205;SDS011;3136;48.788;9.772;2023-07-28T02:52:43;3.70;;;3.30;;
6205;SDS011;3136;48.788;9.772;2023-07-28T02:55:08;3.70;;;3.30;;
6205;SDS011;3136;48.788;9.772;2023-07-28T02:57:34;4.17;;;3.40;;
6205;SDS011;3136;48.788;9.772;2023-07-28T02:59:59;5.60;;;3.20;;
6205;SDS011;3136;48.788;9.772;2023-07-28T03:02:25;4.47;;;3.40;;
6205;SDS011;3136;48.788;9.772;2023-07-28T03:04:51;5.47;;;3.63;;
6205;SDS011;3136;48.788;9.772;2023-07-28T03:07:16;7.43;;;3.87;;
6205;SDS011;3136;48.788;9.772;2023-07-28T03:09:42;6.30;;;4.00;;
6205;SDS011;3136;48.788;9.772;2023-07-28T03:12:08;4.37;;;3.90;;
6205;SDS011;3136;48.788;9.772;2023-07-28T03:14:33;4.27;;;3.60;;
6205;SDS011;3136;48.788;9.772;2023-07-28T03:16:59;5.23;;;4.10;;
6205;SDS011;3136;48.788;9.772;2023-07-28T03:19:25;5.57;;;4.20;;
6205;SDS011;3136;48.788;9.772;2023-07-28T03:21:50;7.13;;;4.00;;
6205;SDS011;3136;48.788;9.772;2023-07-28T03:24:16;8.67;;;4.30;;
6205;SDS011;3136;48.788;9.772;2023-07-28T03:26:41;3.83;;;3.53;;
6205;SDS011;3136;48.788;9.772;2023-07-28T03:29:07;4.43;;;4.03;;
6205;SDS011;3136;48.788;9.772;2023-07-28T03:31:32;5.63;;;4.47;;
6205;SDS011;3136;48.788;9.772;2023-07-28T03:34:00;8.70;;;4.90;;
6205;SDS011;3136;48.788;9.772;2023-07-28T03:36:27;5.50;;;4.93;;
6205;SDS011;3136;48.788;9.772;2023-07-28T03:38:53;6.60;;;4.43;;
6205;SDS011;3136;48.788;9.772;2023-07-28T03:41:18;5.63;;;4.80;;
6205;SDS011;3136;48.788;9.772;2023-07-28T03:43:44;10.23;;;4.60;;
6205;SDS011;3136;48.788;9.772;2023-07-28T03:46:10;8.57;;;4.90;;
6205;SDS011;3136;48.788;9.772;2023-07-28T03:48:36;7.17;;;4.37;;
6205;SDS011;3136;48.788;9.772;2023-07-28T03:51:02;8.10;;;4.80;;
6205;SDS011;3136;48.788;9.772;2023-07-28T03:53:27;5.87;;;4.40;;
6205;SDS011;3136;48.788;9.772;2023-07-28T03:55:53;5.57;;;4.63;;
6205;SDS011;3136;48.788;9.772;2023-07-28T03:58:22;6.07;;;4.37;;
6205;SDS011;3136;48.788;9.772;2023-07-28T04:00:54;5.60;;;4.03;;
6205;SDS011;3136;48.788;9.772;2023-07-28T04:03:19;5.13;;;4.20;;
6205;SDS011;3136;48.788;9.772;2023-07-28T04:05:45;9.50;;;4.53;;
6205;SDS011;3136;48.788;9.772;2023-07-28T04:08:11;5.10;;;4.60;;
6205;SDS011;3136;48.788;9.772;2023-07-28T04:10:37;5.53;;;4.10;;
6205;SDS011;3136;48.788;9.772;2023-07-28T04:13:02;6.10;;;4.50;;
6205;SDS011;3136;48.788;9.772;2023-07-28T04:15:28;6.40;;;4.90;;
6205;SDS011;3136;48.788;9.772;2023-07-28T04:17:53;7.40;;;4.63;;
6205;SDS011;3136;48.788;9.772;2023-07-28T04:20:19;4.77;;;4.37;;
6205;SDS011;3136;48.788;9.772;2023-07-28T04:22:44;5.73;;;4.43;;
6205;SDS011;3136;48.788;9.772;2023-07-28T04:25:10;6.13;;;4.20;;
6205;SDS011;3136;48.788;9.772;2023-07-28T04:27:35;6.10;;;4.43;;
6205;SDS011;3136;48.788;9.772;2023-07-28T04:30:01;4.57;;;4.17;;
6205;SDS011;3136;48.788;9.772;2023-07-28T04:32:27;5.93;;;4.43;;
6205;SDS011;3136;48.788;9.772;2023-07-28T04:34:52;6.13;;;4.73;;
6205;SDS011;3136;48.788;9.772;2023-07-28T04:37:18;6.43;;;4.67;;
6205;SDS011;3136;48.788;9.772;2023-07-28T04:39:44;4.90;;;4.40;;
6205;SDS011;3136;48.788;9.772;2023-07-28T04:42:09;4.97;;;4.47;;
6205;SDS011;3136;48.788;9.772;2023-07-28T04:44:36;4.87;;;4.30;;
6205;SDS011;3136;48.788;9.772;2023-07-28T04:47:03;4.27;;;3.87;;
6205;SDS011;3136;48.788;9.772;2023-07-28T04:49:29;5.23;;;3.93;;
6205;SDS011;3136;48.788;9.772;2023-07-28T04:51:54;7.17;;;4.00;;
6205;SDS011;3136;48.788;9.772;2023-07-28T04:54:20;4.80;;;3.90;;
6205;SDS011;3136;48.788;9.772;2023-07-28T04:56:45;5.73;;;4.00;;
6205;SDS011;3136;48.788;9.772;2023-07-28T04:59:11;5.43;;;4.50;;
6205;SDS011;3136;48.788;9.772;2023-07-28T05:01:37;5.30;;;4.10;;
6205;SDS011;3136;48.788;9.772;2023-07-28T05:04:02;5.23;;;4.30;;
6205;SDS011;3136;48.788;9.772;2023-07-28T05:06:28;8.87;;;5.00;;
6205;SDS011;3136;48.788;9.772;2023-07-28T05:08:53;6.10;;;4.60;;
6205;SDS011;3136;48.788;9.772;2023-07-28T05:11:19;4.90;;;4.33;;
6205;SDS011;3136;48.788;9.772;2023-07-28T05:13:45;6.23;;;4.87;;
6205;SDS011;3136;48.788;9.772;2023-07-28T05:16:10;4.83;;;4.40;;
6205;SDS011;3136;48.788;9.772;2023-07-28T05:18:36;6.77;;;4.50;;
6205;SDS011;3136;48.788;9.772;2023-07-28T05:21:02;5.70;;;4.50;;
6205;SDS011;3136;48.788;9.772;2023-07-28T05:23:27;5.47;;;4.33;;
6205;SDS011;3136;48.788;9.772;2023-07-28T05:25:53;4.93;;;4.47;;
6205;SDS011;3136;48.788;9.772;2023-07-28T05:28:19;5.77;;;4.50;;
6205;SDS011;3136;48.788;9.772;2023-07-28T05:30:44;8.33;;;4.33;;
6205;SDS011;3136;48.788;9.772;2023-07-28T05:33:10;5.70;;;4.67;;
6205;SDS011;3136;48.788;9.772;2023-07-28T05:35:35;5.87;;;4.03;;
6205;SDS011;3136;48.788;9.772;2023-07-28T05:38:01;5.20;;;4.50;;
6205;SDS011;3136;48.788;9.772;2023-07-28T05:40:26;4.93;;;4.33;;
6205;SDS011;3136;48.788;9.772;2023-07-28T05:42:52;5.23;;;4.70;;
6205;SDS011;3136;48.788;9.772;2023-07-28T05:45:18;6.67;;;4.90;;
6205;SDS011;3136;48.788;9.772;2023-07-28T05:47:43;6.43;;;4.90;;
6205;SDS011;3136;48.788;9.772;2023-07-28T05:50:09;5.60;;;5.00;;
6205;SDS011;3136;48.788;9.772;2023-07-28T05:52:35;7.13;;;5.00;;
6205;SDS011;3136;48.788;9.772;2023-07-28T05:55:00;5.87;;;4.40;;
6205;SDS011;3136;48.788;9.772;2023-07-28T05:57:26;10.50;;;4.87;;
6205;SDS011;3136;48.788;9.772;2023-07-28T05:59:51;7.80;;;4.83;;
6205;SDS011;3136;48.788;9.772;2023-07-28T06:02:17;6.47;;;4.47;;
6205;SDS011;3136;48.788;9.772;2023-07-28T06:04:42;7.33;;;4.50;;
6205;SDS011;3136;48.788;9.772;2023-07-28T06:07:09;8.83;;;4.90;;
6205;SDS011;3136;48.788;9.772;2023-07-28T06:09:34;11.17;;;5.30;;
6205;SDS011;3136;48.788;9.772;2023-07-28T06:12:00;8.67;;;5.10;;
6205;SDS011;3136;48.788;9.772;2023-07-28T06:14:26;8.37;;;4.77;;
6205;SDS011;3136;48.788;9.772;2023-07-28T06:16:51;8.13;;;4.83;;
6205;SDS011;3136;48.788;9.772;2023-07-28T06:19:17;8.30;;;5.17;;
6205;SDS011;3136;48.788;9.772;2023-07-28T06:21:48;7.60;;;4.83;;
6205;SDS011;3136;48.788;9.772;2023-07-28T06:24:15;11.67;;;5.00;;
6205;SDS011;3136;48.788;9.772;2023-07-28T06:26:41;7.50;;;4.87;;
6205;SDS011;3136;48.788;9.772;2023-07-28T06:29:06;6.13;;;4.53;;
6205;SDS011;3136;48.788;9.772;2023-07-28T06:31:32;5.77;;;4.63;;
6205;SDS011;3136;48.788;9.772;2023-07-28T06:33:57;5.87;;;4.30;;
6205;SDS011;3136;48.788;9.772;2023-07-28T06:36:23;5.30;;;4.40;;
6205;SDS011;3136;48.788;9.772;2023-07-28T06:38:49;7.27;;;4.33;;
6205;SDS011;3136;48.788;9.772;2023-07-28T06:41:17;7.50;;;4.20;;
6205;SDS011;3136;48.788;9.772;2023-07-28T06:43:42;5.07;;;3.87;;
6205;SDS011;3136;48.788;9.772;2023-07-28T06:46:08;6.07;;;4.50;;
6205;SDS011;3136;48.788;9.772;2023-07-28T06:48:34;4.57;;;4.17;;
6205;SDS011;3136;48.788;9.772;2023-07-28T06:50:59;6.50;;;4.63;;
6205;SDS011;3136;48.788;9.772;2023-07-28T06:53:25;7.63;;;5.00;;
6205;SDS011;3136;48.788;9.772;2023-07-28T06:55:50;5.43;;;4.93;;
6205;SDS011;3136;48.788;9.772;2023-07-28T06:58:16;6.47;;;4.43;;
6205;SDS011;3136;48.788;9.772;2023-07-28T07:00:42;6.30;;;4.87;;
6205;SDS011;3136;48.788;9.772;2023-07-28T07:03:07;7.33;;;4.90;;
6205;SDS011;3136;48.788;9.772;2023-07-28T07:05:33;7.33;;;5.23;;
6205;SDS011;3136;48.788;9.772;2023-07-28T07:07:59;7.83;;;5.13;;
6205;SDS011;3136;48.788;9.772;2023-07-28T07:10:26;5.57;;;4.20;;
6205;SDS011;3136;48.788;9.772;2023-07-28T07:12:52;6.03;;;4.60;;
6205;SDS011;3136;48.788;9.772;2023-07-28T07:15:17;5.83;;;4.13;;
6205;SDS011;3136;48.788;9.772;2023-07-28T07:17:43;8.67;;;4.37;;
6205;SDS011;3136;48.788;9.772;2023-07-28T07:20:08;8.60;;;4.90;;
6205;SDS011;3136;48.788;9.772;2023-07-28T07:22:35;6.67;;;4.53;;
6205;SDS011;3136;48.788;9.772;2023-07-28T07:25:02;8.40;;;5.07;;
6205;SDS011;3136;48.788;9.772;2023-07-28T07:27:29;7.27;;;4.57;;
6205;SDS011;3136;48.788;9.772;2023-07-28T07:29:54;7.63;;;4.80;;
6205;SDS011;3136;48.788;9.772;2023-07-28T07:32:20;7.37;;;4.87;;
6205;SDS011;3136;48.788;9.772;2023-07-28T07:34:45;7.17;;;4.60;;
6205;SDS011;3136;48.788;9.772;2023-07-28T07:37:11;7.53;;;5.33;;
6205;SDS011;3136;48.788;9.772;2023-07-28T07:39:36;7.37;;;5.30;;
6205;SDS011;3136;48.788;9.772;2023-07-28T07:42:02;7.03;;;4.83;;
6205;SDS011;3136;48.788;9.772;2023-07-28T07:44:28;7.67;;;4.80;;
6205;SDS011;3136;48.788;9.772;2023-07-28T07:46:54;7.50;;;4.80;;
6205;SDS011;3136;48.788;9.772;2023-07-28T07:49:24;6.33;;;4.73;;
6205;SDS011;3136;48.788;9.772;2023-07-28T07:51:49;8.40;;;4.80;;
6205;SDS011;3136;48.788;9.772;2023-07-28T07:54:15;7.90;;;4.40;;
6205;SDS011;3136;48.788;9.772;2023-07-28T07:56:43;6.13;;;4.50;;
6205;SDS011;3136;48.788;9.772;2023-07-28T07:59:09;7.50;;;4.70;;
6205;SDS011;3136;48.788;9.772;2023-07-28T08:01:35;6.50;;;4.83;;
6205;SDS011;3136;48.788;9.772;2023-07-28T08:04:00;8.53;;;5.13;;
6205;SDS011;3136;48.788;9.772;2023-07-28T08:06:26;5.40;;;4.53;;
6205;SDS011;3136;48.788;9.772;2023-07-28T08:08:52;7.07;;;5.00;;
6205;SDS011;3136;48.788;9.772;2023-07-28T08:11:18;5.53;;;4.03;;
6205;SDS011;3136;48.788;9.772;2023-07-28T08:13:44;5.93;;;4.50;;
6205;SDS011;3136;48.788;9.772;2023-07-28T08:16:10;5.03;;;3.83;;
6205;SDS011;3136;48.788;9.772;2023-07-28T08:18:36;5.80;;;3.90;;
6205;SDS011;3136;48.788;9.772;2023-07-28T08:21:01;5.67;;;4.00;;
6205;SDS011;3136;48.788;9.772;2023-07-28T08:23:27;7.37;;;4.10;;
6205;SDS011;3136;48.788;9.772;2023-07-28T08:25:53;4.83;;;3.73;;
6205;SDS011;3136;48.788;9.772;2023-07-28T08:28:18;3.73;;;3.30;;
6205;SDS011;3136;48.788;9.772;2023-07-28T08:30:44;3.57;;;3.23;;
6205;SDS011;3136;48.788;9.772;2023-07-28T08:33:09;3.73;;;3.33;;
6205;SDS011;3136;48.788;9.772;2023-07-28T08:35:35;5.00;;;3.93;;
6205;SDS011;3136;48.788;9.772;2023-07-28T08:38:00;4.10;;;3.70;;
6205;SDS011;3136;48.788;9.772;2023-07-28T08:40:26;4.20;;;3.63;;
6205;SDS011;3136;48.788;9.772;2023-07-28T08:42:53;4.50;;;4.00;;
6205;SDS011;3136;48.788;9.772;2023-07-28T08:45:18;5.10;;;3.93;;
6205;SDS011;3136;48.788;9.772;2023-07-28T08:47:44;6.83;;;4.07;;
6205;SDS011;3136;48.788;9.772;2023-07-28T08:50:10;4.30;;;3.90;;
6205;SDS011;3136;48.788;9.772;2023-07-28T08:52:36;5.73;;;4.07;;
6205;SDS011;3136;48.788;9.772;2023-07-28T08:55:01;5.30;;;3.90;;
6205;SDS011;3136;48.788;9.772;2023-07-28T08:57:27;5.17;;;4.27;;
6205;SDS011;3136;48.788;9.772;2023-07-28T08:59:53;5.67;;;4.17;;
6205;SDS011;3136;48.788;9.772;2023-07-28T09:02:19;4.83;;;4.33;;
6205;SDS011;3136;48.788;9.772;2023-07-28T09:04:46;5.38;;;4.50;;
6205;SDS011;3136;48.788;9.772;2023-07-28T09:07:13;6.37;;;4.60;;
6205;SDS011;3136;48.788;9.772;2023-07-28T09:09:39;5.50;;;4.60;;
6205;SDS011;3136;48.788;9.772;2023-07-28T09:12:06;5.53;;;4.70;;
6205;SDS011;3136;48.788;9.772;2023-07-28T09:14:34;6.87;;;4.00;;
6205;SDS011;3136;48.788;9.772;2023-07-28T09:17:08;6.33;;;4.20;;
6205;SDS011;3136;48.788;9.772;2023-07-28T09:19:34;5.07;;;3.97;;
6205;SDS011;3136;48.788;9.772;2023-07-28T09:22:13;4.83;;;3.50;;
6205;SDS011;3136;48.788;9.772;2023-07-28T09:24:39;5.70;;;3.83;;
6205;SDS011;3136;48.788;9.772;2023-07-28T09:27:04;6.40;;;3.80;;
6205;SDS011;3136;48.788;9.772;2023-07-28T09:29:30;8.13;;;3.77;;
6205;SDS011;3136;48.788;9.772;2023-07-28T09:32:02;6.73;;;4.00;;
6205;SDS011;3136;48.788;9.772;2023-07-28T09:34:29;6.67;;;4.10;;
6205;SDS011;3136;48.788;9.772;2023-07-28T09:36:58;5.00;;;3.70;;
6205;SDS011;3136;48.788;9.772;2023-07-28T09:39:25;7.67;;;3.87;;
6205;SDS011;3136;48.788;9.772;2023-07-28T09:41:51;5.10;;;4.13;;
6205;SDS011;3136;48.788;9.772;2023-07-28T09:44:17;4.17;;;3.70;;
6205;SDS011;3136;48.788;9.772;2023-07-28T09:49:15;8.07;;;4.03;;
6205;SDS011;3136;48.788;9.772;2023-07-28T09:51:45;5.70;;;3.90;;
6205;SDS011;3136;48.788;9.772;2023-07-28T09:54:18;4.93;;;3.80;;
6205;SDS011;3136;48.788;9.772;2023-07-28T09:56:52;5.13;;;3.60;;
6205;SDS011;3136;48.788;9.772;2023-07-28T09:59:21;7.10;;;3.97;;
6205;SDS011;3136;48.788;9.772;2023-07-28T10:01:54;8.43;;;3.30;;
6205;SDS011;3136;48.788;9.772;2023-07-28T10:04:22;3.77;;;3.40;;
6205;SDS011;3136;48.788;9.772;2023-07-28T10:06:47;3.80;;;3.50;;
6205;SDS011;3136;48.788;9.772;2023-07-28T10:09:13;5.57;;;3.00;;
6205;SDS011;3136;48.788;9.772;2023-07-28T10:11:41;3.50;;;3.20;;
6205;SDS011;3136;48.788;9.772;2023-07-28T10:14:07;4.47;;;3.00;;
6205;SDS011;3136;48.788;9.772;2023-07-28T10:16:39;3.20;;;2.87;;
6205;SDS011;3136;48.788;9.772;2023-07-28T10:19:05;5.17;;;2.97;;
6205;SDS011;3136;48.788;9.772;2023-07-28T10:21:31;3.47;;;2.87;;
6205;SDS011;3136;48.788;9.772;2023-07-28T10:24:00;3.17;;;2.87;;
6205;SDS011;3136;48.788;9.772;2023-07-28T10:26:34;5.03;;;2.33;;
6205;SDS011;3136;48.788;9.772;2023-07-28T10:29:10;6.77;;;2.50;;
6205;SDS011;3136;48.788;9.772;2023-07-28T10:31:44;4.23;;;2.47;;
6205;SDS011;3136;48.788;9.772;2023-07-28T10:34:15;2.43;;;2.20;;
6205;SDS011;3136;48.788;9.772;2023-07-28T10:36:46;2.90;;;2.27;;
6205;SDS011;3136;48.788;9.772;2023-07-28T10:39:20;3.27;;;2.40;;
6205;SDS011;3136;48.788;9.772;2023-07-28T10:44:31;2.87;;;2.20;;
6205;SDS011;3136;48.788;9.772;2023-07-28T10:46:58;2.73;;;2.50;;
6205;SDS011;3136;48.788;9.772;2023-07-28T10:49:24;3.60;;;2.50;;
6205;SDS011;3136;48.788;9.772;2023-07-28T10:51:50;2.50;;;2.30;;
6205;SDS011;3136;48.788;9.772;2023-07-28T10:54:16;5.00;;;2.53;;
6205;SDS011;3136;48.788;9.772;2023-07-28T10:56:45;2.70;;;2.50;;
6205;SDS011;3136;48.788;9.772;2023-07-28T10:59:11;3.00;;;2.43;;
6205;SDS011;3136;48.788;9.772;2023-07-28T11:01:37;5.77;;;2.53;;
6205;SDS011;3136;48.788;9.772;2023-07-28T11:06:34;5.23;;;2.27;;
6205;SDS011;3136;48.788;9.772;2023-07-28T11:09:00;3.60;;;2.40;;
6205;SDS011;3136;48.788;9.772;2023-07-28T11:11:25;2.90;;;2.37;;
6205;SDS011;3136;48.788;9.772;2023-07-28T11:13:51;4.07;;;2.20;;
6205;SDS011;3136;48.788;9.772;2023-07-28T11:16:17;3.00;;;2.20;;
6205;SDS011;3136;48.788;9.772;2023-07-28T11:18:44;4.03;;;2.37;;
6205;SDS011;3136;48.788;9.772;2023-07-28T11:21:09;2.43;;;2.20;;
6205;SDS011;3136;48.788;9.772;2023-07-28T11:23:35;4.63;;;2.50;;
6205;SDS011;3136;48.788;9.772;2023-07-28T11:26:00;2.80;;;2.27;;
6205;SDS011;3136;48.788;9.772;2023-07-28T11:28:26;4.13;;;2.43;;
6205;SDS011;3136;48.788;9.772;2023-07-28T11:30:53;2.30;;;2.10;;
6205;SDS011;3136;48.788;9.772;2023-07-28T11:33:18;3.07;;;2.10;;
6205;SDS011;3136;48.788;9.772;2023-07-28T11:35:44;4.23;;;2.10;;
6205;SDS011;3136;48.788;9.772;2023-07-28T11:38:10;2.80;;;2.30;;
6205;SDS011;3136;48.788;9.772;2023-07-28T11:40:36;6.23;;;2.70;;
6205;SDS011;3136;48.788;9.772;2023-07-28T11:43:02;2.53;;;2.33;;
6205;SDS011;3136;48.788;9.772;2023-07-28T11:45:29;2.60;;;2.17;;
6205;SDS011;3136;48.788;9.772;2023-07-28T11:50:24;3.20;;;1.90;;
6205;SDS011;3136;48.788;9.772;2023-07-28T11:52:54;2.83;;;2.20;;
6205;SDS011;3136;48.788;9.772;2023-07-28T11:55:22;3.53;;;2.00;;
6205;SDS011;3136;48.788;9.772;2023-07-28T11:57:49;2.50;;;1.90;;
6205;SDS011;3136;48.788;9.772;2023-07-28T12:00:16;2.67;;;2.20;;
6205;SDS011;3136;48.788;9.772;2023-07-28T12:02:42;2.00;;;1.80;;
6205;SDS011;3136;48.788;9.772;2023-07-28T12:05:14;2.30;;;2.10;;
6205;SDS011;3136;48.788;9.772;2023-07-28T12:07:41;5.10;;;2.00;;
6205;SDS011;3136;48.788;9.772;2023-07-28T12:10:12;3.70;;;2.10;;
6205;SDS011;3136;48.788;9.772;2023-07-28T12:12:56;5.13;;;2.03;;
6205;SDS011;3136;48.788;9.772;2023-07-28T12:15:23;1.70;;;1.60;;
6205;SDS011;3136;48.788;9.772;2023-07-28T12:20:54;1.88;;;1.77;;
6205;SDS011;3136;48.788;9.772;2023-07-28T12:23:20;2.03;;;1.70;;
6205;SDS011;3136;48.788;9.772;2023-07-28T12:25:47;2.60;;;1.97;;
6205;SDS011;3136;48.788;9.772;2023-07-28T12:28:15;1.77;;;1.63;;
6205;SDS011;3136;48.788;9.772;2023-07-28T12:30:41;2.10;;;1.70;;
6205;SDS011;3136;48.788;9.772;2023-07-28T12:33:06;2.60;;;1.67;;
6205;SDS011;3136;48.788;9.772;2023-07-28T12:35:33;2.23;;;1.70;;
6205;SDS011;3136;48.788;9.772;2023-07-28T12:38:05;2.57;;;1.80;;
6205;SDS011;3136;48.788;9.772;2023-07-28T12:40:31;3.70;;;1.40;;
6205;SDS011;3136;48.788;9.772;2023-07-28T12:42:58;1.93;;;1.63;;
6205;SDS011;3136;48.788;9.772;2023-07-28T12:45:25;1.63;;;1.50;;
6205;SDS011;3136;48.788;9.772;2023-07-28T12:47:54;3.53;;;1.80;;
6205;SDS011;3136;48.788;9.772;2023-07-28T12:50:20;1.77;;;1.67;;
6205;SDS011;3136;48.788;9.772;2023-07-28T12:52:47;3.50;;;1.53;;
6205;SDS011;3136;48.788;9.772;2023-07-28T12:55:13;2.50;;;1.70;;
6205;SDS011;3136;48.788;9.772;2023-07-28T12:57:41;1.70;;;1.60;;
6205;SDS011;3136;48.788;9.772;2023-07-28T13:00:07;2.53;;;1.60;;
6205;SDS011;3136;48.788;9.772;2023-07-28T13:02:37;2.37;;;1.80;;
6205;SDS011;3136;48.788;9.772;2023-07-28T13:05:09;2.03;;;1.57;;
6205;SDS011;3136;48.788;9.772;2023-07-28T13:07:36;1.87;;;1.70;;
6205;SDS011;3136;48.788;9.772;2023-07-28T13:10:02;1.87;;;1.67;;
6205;SDS011;3136;48.788;9.772;2023-07-28T13:12:28;2.87;;;1.80;;
6205;SDS011;3136;48.788;9.772;2023-07-28T13:14:54;2.23;;;1.70;;
6205;SDS011;3136;48.788;9.772;2023-07-28T13:17:19;2.00;;;1.80;;
6205;SDS011;3136;48.788;9.772;2023-07-28T13:19:45;4.53;;;1.90;;
6205;SDS011;3136;48.788;9.772;2023-07-28T13:22:10;2.07;;;1.73;;
6205;SDS011;3136;48.788;9.772;2023-07-28T13:24:36;3.50;;;1.63;;
6205;SDS011;3136;48.788;9.772;2023-07-28T13:27:02;3.23;;;1.90;;
6205;SDS011;3136;48.788;9.772;2023-07-28T13:29:28;2.60;;;1.93;;
6205;SDS011;3136;48.788;9.772;2023-07-28T13:31:56;3.43;;;2.07;;
6205;SDS011;3136;48.788;9.772;2023-07-28T13:34:25;2.03;;;1.80;;
6205;SDS011;3136;48.788;9.772;2023-07-28T13:36:50;3.20;;;1.90;;
6205;SDS011;3136;48.788;9.772;2023-07-28T13:39:16;2.13;;;1.80;;
6205;SDS011;3136;48.788;9.772;2023-07-28T13:41:41;3.13;;;2.27;;
6205;SDS011;3136;48.788;9.772;2023-07-28T13:44:07;2.57;;;2.10;;
6205;SDS011;3136;48.788;9.772;2023-07-28T13:46:32;2.10;;;1.90;;
6205;SDS011;3136;48.788;9.772;2023-07-28T13:48:58;3.20;;;2.27;;
6205;SDS011;3136;48.788;9.772;2023-07-28T13:51:23;5.20;;;2.20;;
6205;SDS011;3136;48.788;9.772;2023-07-28T13:53:49;2.87;;;2.07;;
6205;SDS011;3136;48.788;9.772;2023-07-28T13:56:15;2.87;;;2.53;;
6205;SDS011;3136;48.788;9.772;2023-07-28T13:58:41;3.03;;;2.37;;
6205;SDS011;3136;48.788;9.772;2023-07-28T14:01:06;3.87;;;3.10;;
6205;SDS011;3136;48.788;9.772;2023-07-28T14:03:32;2.80;;;2.30;;
6205;SDS011;3136;48.788;9.772;2023-07-28T14:05:57;3.87;;;2.43;;
6205;SDS011;3136;48.788;9.772;2023-07-28T14:08:23;2.57;;;2.37;;
6205;SDS011;3136;48.788;9.772;2023-07-28T14:10:48;2.70;;;2.50;;
6205;SDS011;3136;48.788;9.772;2023-07-28T14:13:14;4.20;;;2.50;;
6205;SDS011;3136;48.788;9.772;2023-07-28T14:15:40;3.47;;;2.90;;
6205;SDS011;3136;48.788;9.772;2023-07-28T14:18:05;2.80;;;2.60;;
6205;SDS011;3136;48.788;9.772;2023-07-28T14:20:31;3.10;;;2.80;;
6205;SDS011;3136;48.788;9.772;2023-07-28T14:22:59;3.53;;;2.60;;
6205;SDS011;3136;48.788;9.772;2023-07-28T14:25:26;4.93;;;3.20;;
6205;SDS011;3136;48.788;9.772;2023-07-28T14:27:51;5.67;;;3.03;;
6205;SDS011;3136;48.788;9.772;2023-07-28T14:30:17;4.83;;;3.10;;
6205;SDS011;3136;48.788;9.772;2023-07-28T14:32:42;5.47;;;3.20;;
6205;SDS011;3136;48.788;9.772;2023-07-28T14:35:08;4.03;;;3.40;;
6205;SDS011;3136;48.788;9.772;2023-07-28T14:37:33;4.47;;;3.43;;
6205;SDS011;3136;48.788;9.772;2023-07-28T14:39:59;4.87;;;3.40;;
6205;SDS011;3136;48.788;9.772;2023-07-28T14:42:24;6.97;;;3.30;;
6205;SDS011;3136;48.788;9.772;2023-07-28T14:44:50;4.73;;;3.03;;
6205;SDS011;3136;48.788;9.772;2023-07-28T14:47:15;5.10;;;3.10;;
6205;SDS011;3136;48.788;9.772;2023-07-28T14:49:41;4.37;;;3.23;;
6205;SDS011;3136;48.788;9.772;2023-07-28T14:52:06;6.90;;;3.33;;
6205;SDS011;3136;48.788;9.772;2023-07-28T14:54:32;4.10;;;2.50;;
6205;SDS011;3136;48.788;9.772;2023-07-28T14:56:58;3.83;;;2.50;;
6205;SDS011;3136;48.788;9.772;2023-07-28T14:59:23;3.67;;;2.70;;
6205;SDS011;3136;48.788;9.772;2023-07-28T15:01:49;3.20;;;2.77;;
6205;SDS011;3136;48.788;9.772;2023-07-28T15:04:14;4.67;;;3.00;;
6205;SDS011;3136;48.788;9.772;2023-07-28T15:06:40;4.17;;;2.77;;
6205;SDS011;3136;48.788;9.772;2023-07-28T15:09:06;2.87;;;2.37;;
6205;SDS011;3136;48.788;9.772;2023-07-28T15:11:31;3.07;;;2.77;;
6205;SDS011;3136;48.788;9.772;2023-07-28T15:13:57;4.57;;;2.87;;
6205;SDS011;3136;48.788;9.772;2023-07-28T15:16:23;4.37;;;2.77;;
6205;SDS011;3136;48.788;9.772;2023-07-28T15:18:48;3.87;;;2.73;;
6205;SDS011;3136;48.788;9.772;2023-07-28T15:21:14;3.17;;;2.57;;
6205;SDS011;3136;48.788;9.772;2023-07-28T15:23:39;3.63;;;2.50;;
6205;SDS011;3136;48.788;9.772;2023-07-28T15:26:05;2.70;;;2.50;;
6205;SDS011;3136;48.788;9.772;2023-07-28T15:28:31;2.90;;;2.30;;
6205;SDS011;3136;48.788;9.772;2023-07-28T15:30:56;3.00;;;2.70;;